sensor_id;sensor_type;location;lat;lon;timestamp;temperature;humidity
12166;DHT22;6146;48.128;11.476;2023-06-22T00:01:55;21.40;99.90
12166;DHT22;6146;48.128;11.476;2023-06-22T00:04:20;21.40;99.90
12166;DHT22;6146;48.128;11.476;2023-06-22T00:06:46;21.40;99.90
12166;DHT22;6146;48.128;11.476;2023-06-22T00:09:11;21.30;99.90
12166;DHT22;6146;48.128;11.476;2023-06-22T00:11:37;21.40;99.90
12166;DHT22;6146;48.128;11.476;2023-06-22T00:14:04;21.40;99.90
12166;DHT22;6146;48.128;11.476;2023-06-22T00:16:31;21.40;99.90
12166;DHT22;6146;48.128;11.476;2023-06-22T00:18:56;21.40;99.90
12166;DHT22;6146;48.128;11.476;2023-06-22T00:21:28;21.40;99.90
12166;DHT22;6146;48.128;11.476;2023-06-22T00:23:54;21.30;99.90
12166;DHT22;6146;48.128;11.476;2023-06-22T00:26:20;21.30;99.90
12166;DHT22;6146;48.128;11.476;2023-06-22T00:28:46;21.30;99.90
12166;DHT22;6146;48.128;11.476;2023-06-22T00:31:11;21.20;99.90
12166;DHT22;6146;48.128;11.476;2023-06-22T00:33:37;21.30;99.90
12166;DHT22;6146;48.128;11.476;2023-06-22T00:36:03;21.30;99.90
12166;DHT22;6146;48.128;11.476;2023-06-22T00:38:29;21.30;99.90
12166;DHT22;6146;48.128;11.476;2023-06-22T00:40:54;21.30;99.90
12166;DHT22;6146;48.128;11.476;2023-06-22T00:43:20;21.30;99.90
12166;DHT22;6146;48.128;11.476;2023-06-22T00:45:46;21.20;99.90
12166;DHT22;6146;48.128;11.476;2023-06-22T00:48:12;21.20;99.90
12166;DHT22;6146;48.128;11.476;2023-06-22T00:50:38;21.10;99.90
12166;DHT22;6146;48.128;11.476;2023-06-22T00:53:05;21.10;99.90
12166;DHT22;6146;48.128;11.476;2023-06-22T00:55:42;21.10;99.90
12166;DHT22;6146;48.128;11.476;2023-06-22T00:58:16;21.00;99.90
12166;DHT22;6146;48.128;11.476;2023-06-22T01:00:42;20.90;99.90
12166;DHT22;6146;48.128;11.476;2023-06-22T01:03:08;21.00;99.90
12166;DHT22;6146;48.128;11.476;2023-06-22T01:05:35;20.90;99.90
12166;DHT22;6146;48.128;11.476;2023-06-22T01:11:05;20.80;99.90
12166;DHT22;6146;48.128;11.476;2023-06-22T01:13:45;20.80;99.90
12166;DHT22;6146;48.128;11.476;2023-06-22T01:16:18;20.70;99.90
12166;DHT22;6146;48.128;11.476;2023-06-22T01:18:47;20.70;99.90
12166;DHT22;6146;48.128;11.476;2023-06-22T01:21:16;20.70;99.90
12166;DHT22;6146;48.128;11.476;2023-06-22T01:26:43;20.70;99.90
12166;DHT22;6146;48.128;11.476;2023-06-22T01:29:13;20.70;99.90
12166;DHT22;6146;48.128;11.476;2023-06-22T01:31:41;20.70;99.90
12166;DHT22;6146;48.128;11.476;2023-06-22T01:34:08;20.60;99.90
12166;DHT22;6146;48.128;11.476;2023-06-22T01:36:35;20.60;99.90
12166;DHT22;6146;48.128;11.476;2023-06-22T01:39:02;20.50;99.90
12166;DHT22;6146;48.128;11.476;2023-06-22T01:41:35;20.60;99.90
12166;DHT22;6146;48.128;11.476;2023-06-22T01:44:05;20.50;99.90
12166;DHT22;6146;48.128;11.476;2023-06-22T01:46:31;20.50;99.90
12166;DHT22;6146;48.128;11.476;2023-06-22T01:48:57;20.40;99.90
12166;DHT22;6146;48.128;11.476;2023-06-22T01:51:23;20.40;99.90
12166;DHT22;6146;48.128;11.476;2023-06-22T01:53:49;20.50;99.90
12166;DHT22;6146;48.128;11.476;2023-06-22T01:56:17;20.40;99.90
12166;DHT22;6146;48.128;11.476;2023-06-22T01:59:17;20.40;99.90
12166;DHT22;6146;48.128;11.476;2023-06-22T02:02:01;20.40;99.90
12166;DHT22;6146;48.128;11.476;2023-06-22T02:04:37;20.30;99.90
12166;DHT22;6146;48.128;11.476;2023-06-22T02:07:11;20.30;99.90
12166;DHT22;6146;48.128;11.476;2023-06-22T02:09:41;20.30;99.90
12166;DHT22;6146;48.128;11.476;2023-06-22T02:12:08;20.30;99.90
12166;DHT22;6146;48.128;11.476;2023-06-22T02:14:36;20.20;99.90
12166;DHT22;6146;48.128;11.476;2023-06-22T02:17:03;20.20;99.90
12166;DHT22;6146;48.128;11.476;2023-06-22T02:19:30;20.20;99.90
12166;DHT22;6146;48.128;11.476;2023-06-22T02:21:58;20.10;99.90
12166;DHT22;6146;48.128;11.476;2023-06-22T02:24:24;20.20;99.90
12166;DHT22;6146;48.128;11.476;2023-06-22T02:26:49;20.10;99.90
12166;DHT22;6146;48.128;11.476;2023-06-22T02:29:15;20.10;99.90
12166;DHT22;6146;48.128;11.476;2023-06-22T02:31:40;20.10;99.90
12166;DHT22;6146;48.128;11.476;2023-06-22T02:34:06;20.10;99.90
12166;DHT22;6146;48.128;11.476;2023-06-22T02:36:32;20.10;99.90
12166;DHT22;6146;48.128;11.476;2023-06-22T02:38:58;20.10;99.90
12166;DHT22;6146;48.128;11.476;2023-06-22T02:41:26;20.00;99.90
12166;DHT22;6146;48.128;11.476;2023-06-22T02:43:52;20.00;99.90
12166;DHT22;6146;48.128;11.476;2023-06-22T02:46:18;20.00;99.90
12166;DHT22;6146;48.128;11.476;2023-06-22T02:48:43;20.00;99.90
12166;DHT22;6146;48.128;11.476;2023-06-22T02:51:09;20.00;99.90
12166;DHT22;6146;48.128;11.476;2023-06-22T02:53:34;19.90;99.90
12166;DHT22;6146;48.128;11.476;2023-06-22T02:56:02;19.80;99.90
12166;DHT22;6146;48.128;11.476;2023-06-22T02:58:31;19.90;99.90
12166;DHT22;6146;48.128;11.476;2023-06-22T03:01:04;19.90;99.90
12166;DHT22;6146;48.128;11.476;2023-06-22T03:03:30;19.80;99.90
12166;DHT22;6146;48.128;11.476;2023-06-22T03:05:56;19.80;99.90
12166;DHT22;6146;48.128;11.476;2023-06-22T03:08:21;19.70;99.90
12166;DHT22;6146;48.128;11.476;2023-06-22T03:10:47;19.70;99.90
12166;DHT22;6146;48.128;11.476;2023-06-22T03:13:12;19.70;99.90
12166;DHT22;6146;48.128;11.476;2023-06-22T03:15:38;19.70;99.90
12166;DHT22;6146;48.128;11.476;2023-06-22T03:18:03;19.70;99.90
12166;DHT22;6146;48.128;11.476;2023-06-22T03:20:29;19.60;99.90
12166;DHT22;6146;48.128;11.476;2023-06-22T03:22:59;19.60;99.90
12166;DHT22;6146;48.128;11.476;2023-06-22T03:25:24;19.60;99.90
12166;DHT22;6146;48.128;11.476;2023-06-22T03:27:50;19.70;99.90
12166;DHT22;6146;48.128;11.476;2023-06-22T03:30:16;19.70;99.90
12166;DHT22;6146;48.128;11.476;2023-06-22T03:32:41;19.70;99.90
12166;DHT22;6146;48.128;11.476;2023-06-22T03:35:09;19.70;99.90
12166;DHT22;6146;48.128;11.476;2023-06-22T03:37:37;19.70;99.90
12166;DHT22;6146;48.128;11.476;2023-06-22T03:40:03;19.70;99.90
12166;DHT22;6146;48.128;11.476;2023-06-22T03:42:30;19.80;99.90
12166;DHT22;6146;48.128;11.476;2023-06-22T03:44:56;19.80;99.90
12166;DHT22;6146;48.128;11.476;2023-06-22T03:47:22;19.80;99.90
12166;DHT22;6146;48.128;11.476;2023-06-22T03:49:48;19.80;99.90
12166;DHT22;6146;48.128;11.476;2023-06-22T03:52:13;19.90;99.90
12166;DHT22;6146;48.128;11.476;2023-06-22T03:54:39;19.90;99.90
12166;DHT22;6146;48.128;11.476;2023-06-22T03:57:04;20.00;99.90
12166;DHT22;6146;48.128;11.476;2023-06-22T03:59:31;20.00;99.90
12166;DHT22;6146;48.128;11.476;2023-06-22T04:01:57;20.20;99.90
12166;DHT22;6146;48.128;11.476;2023-06-22T04:04:23;20.30;99.90
12166;DHT22;6146;48.128;11.476;2023-06-22T04:06:48;20.40;99.90
12166;DHT22;6146;48.128;11.476;2023-06-22T04:09:14;20.40;99.90
12166;DHT22;6146;48.128;11.476;2023-06-22T04:11:39;20.60;99.90
12166;DHT22;6146;48.128;11.476;2023-06-22T04:14:05;20.70;99.90
12166;DHT22;6146;48.128;11.476;2023-06-22T04:16:31;20.70;99.90
12166;DHT22;6146;48.128;11.476;2023-06-22T04:18:56;20.70;99.90
12166;DHT22;6146;48.128;11.476;2023-06-22T04:21:22;20.90;99.90
12166;DHT22;6146;48.128;11.476;2023-06-22T04:23:47;21.00;99.90
12166;DHT22;6146;48.128;11.476;2023-06-22T04:26:13;21.20;99.90
12166;DHT22;6146;48.128;11.476;2023-06-22T04:28:42;21.30;99.90
12166;DHT22;6146;48.128;11.476;2023-06-22T04:31:07;21.40;99.90
12166;DHT22;6146;48.128;11.476;2023-06-22T04:33:33;21.50;99.90
12166;DHT22;6146;48.128;11.476;2023-06-22T04:35:59;21.70;99.90
12166;DHT22;6146;48.128;11.476;2023-06-22T04:38:27;21.70;99.90
12166;DHT22;6146;48.128;11.476;2023-06-22T04:40:53;22.10;99.90
12166;DHT22;6146;48.128;11.476;2023-06-22T04:43:19;22.30;99.90
12166;DHT22;6146;48.128;11.476;2023-06-22T04:45:45;22.50;99.90
12166;DHT22;6146;48.128;11.476;2023-06-22T04:48:10;22.80;99.90
12166;DHT22;6146;48.128;11.476;2023-06-22T04:50:41;23.00;99.90
12166;DHT22;6146;48.128;11.476;2023-06-22T04:53:06;23.20;99.90
12166;DHT22;6146;48.128;11.476;2023-06-22T04:55:32;23.50;99.90
12166;DHT22;6146;48.128;11.476;2023-06-22T04:57:58;23.80;99.90
12166;DHT22;6146;48.128;11.476;2023-06-22T05:00:30;24.60;99.90
12166;DHT22;6146;48.128;11.476;2023-06-22T05:02:56;25.20;99.90
12166;DHT22;6146;48.128;11.476;2023-06-22T05:05:23;25.90;99.90
12166;DHT22;6146;48.128;11.476;2023-06-22T05:07:50;26.40;99.90
12166;DHT22;6146;48.128;11.476;2023-06-22T05:10:19;26.90;99.90
12166;DHT22;6146;48.128;11.476;2023-06-22T05:12:45;27.00;99.90
12166;DHT22;6146;48.128;11.476;2023-06-22T05:15:11;27.20;99.90
12166;DHT22;6146;48.128;11.476;2023-06-22T05:17:37;27.60;99.90
12166;DHT22;6146;48.128;11.476;2023-06-22T05:20:12;28.00;99.90
12166;DHT22;6146;48.128;11.476;2023-06-22T05:22:40;28.50;99.90
12166;DHT22;6146;48.128;11.476;2023-06-22T05:25:09;28.60;99.60
12166;DHT22;6146;48.128;11.476;2023-06-22T05:27:34;28.40;99.90
12166;DHT22;6146;48.128;11.476;2023-06-22T05:30:08;28.70;99.30
12166;DHT22;6146;48.128;11.476;2023-06-22T05:32:34;29.40;97.50
12166;DHT22;6146;48.128;11.476;2023-06-22T05:35:00;29.30;97.30
12166;DHT22;6146;48.128;11.476;2023-06-22T05:37:25;29.60;96.80
12166;DHT22;6146;48.128;11.476;2023-06-22T05:39:51;29.60;96.60
12166;DHT22;6146;48.128;11.476;2023-06-22T05:42:17;29.60;96.40
12166;DHT22;6146;48.128;11.476;2023-06-22T05:44:42;29.90;95.50
12166;DHT22;6146;48.128;11.476;2023-06-22T05:47:08;30.30;94.60
12166;DHT22;6146;48.128;11.476;2023-06-22T05:49:34;30.40;93.30
12166;DHT22;6146;48.128;11.476;2023-06-22T05:51:59;30.00;93.80
12166;DHT22;6146;48.128;11.476;2023-06-22T05:54:27;29.70;94.40
12166;DHT22;6146;48.128;11.476;2023-06-22T05:56:52;29.80;93.80
12166;DHT22;6146;48.128;11.476;2023-06-22T05:59:18;30.20;93.40
12166;DHT22;6146;48.128;11.476;2023-06-22T06:01:43;30.60;92.80
12166;DHT22;6146;48.128;11.476;2023-06-22T06:04:09;31.20;91.30
12166;DHT22;6146;48.128;11.476;2023-06-22T06:06:35;31.40;90.50
12166;DHT22;6146;48.128;11.476;2023-06-22T06:09:03;31.20;90.60
12166;DHT22;6146;48.128;11.476;2023-06-22T06:11:29;31.20;90.40
12166;DHT22;6146;48.128;11.476;2023-06-22T06:13:54;31.10;90.40
12166;DHT22;6146;48.128;11.476;2023-06-22T06:16:21;31.60;89.20
12166;DHT22;6146;48.128;11.476;2023-06-22T06:18:47;31.60;88.10
12166;DHT22;6146;48.128;11.476;2023-06-22T06:21:15;30.90;89.90
12166;DHT22;6146;48.128;11.476;2023-06-22T06:23:40;30.80;90.30
12166;DHT22;6146;48.128;11.476;2023-06-22T06:26:06;31.20;89.10
12166;DHT22;6146;48.128;11.476;2023-06-22T06:28:32;31.60;88.00
12166;DHT22;6146;48.128;11.476;2023-06-22T06:30:58;32.50;84.50
12166;DHT22;6146;48.128;11.476;2023-06-22T06:33:23;33.30;81.10
12166;DHT22;6146;48.128;11.476;2023-06-22T06:35:49;34.00;77.90
12166;DHT22;6146;48.128;11.476;2023-06-22T06:38:15;34.80;74.10
12166;DHT22;6146;48.128;11.476;2023-06-22T06:40:40;35.60;69.80
12166;DHT22;6146;48.128;11.476;2023-06-22T06:43:06;35.40;68.90
12166;DHT22;6146;48.128;11.476;2023-06-22T06:45:32;35.50;68.10
12166;DHT22;6146;48.128;11.476;2023-06-22T06:47:59;35.90;66.50
12166;DHT22;6146;48.128;11.476;2023-06-22T06:50:25;36.00;64.70
12166;DHT22;6146;48.128;11.476;2023-06-22T06:52:51;35.40;65.00
12166;DHT22;6146;48.128;11.476;2023-06-22T06:55:17;34.30;68.40
12166;DHT22;6146;48.128;11.476;2023-06-22T06:57:44;34.30;69.10
12166;DHT22;6146;48.128;11.476;2023-06-22T07:00:13;35.40;66.70
12166;DHT22;6146;48.128;11.476;2023-06-22T07:02:41;36.50;63.10
12166;DHT22;6146;48.128;11.476;2023-06-22T07:05:08;37.20;60.80
12166;DHT22;6146;48.128;11.476;2023-06-22T07:07:34;37.50;58.00
12166;DHT22;6146;48.128;11.476;2023-06-22T07:09:59;36.30;59.80
12166;DHT22;6146;48.128;11.476;2023-06-22T07:12:25;36.60;59.30
12166;DHT22;6146;48.128;11.476;2023-06-22T07:14:52;37.00;58.20
12166;DHT22;6146;48.128;11.476;2023-06-22T07:17:18;37.50;56.90
12166;DHT22;6146;48.128;11.476;2023-06-22T07:19:44;37.70;56.20
12166;DHT22;6146;48.128;11.476;2023-06-22T07:22:09;38.00;55.40
12166;DHT22;6146;48.128;11.476;2023-06-22T07:24:35;38.00;54.50
12166;DHT22;6146;48.128;11.476;2023-06-22T07:27:00;37.70;55.00
12166;DHT22;6146;48.128;11.476;2023-06-22T07:29:27;37.30;55.50
12166;DHT22;6146;48.128;11.476;2023-06-22T07:31:53;37.40;55.00
12166;DHT22;6146;48.128;11.476;2023-06-22T07:34:19;37.90;54.50
12166;DHT22;6146;48.128;11.476;2023-06-22T07:36:44;37.70;54.70
12166;DHT22;6146;48.128;11.476;2023-06-22T07:39:10;38.00;53.70
12166;DHT22;6146;48.128;11.476;2023-06-22T07:41:38;37.70;54.30
12166;DHT22;6146;48.128;11.476;2023-06-22T07:44:04;37.80;53.70
12166;DHT22;6146;48.128;11.476;2023-06-22T07:46:30;38.30;52.90
12166;DHT22;6146;48.128;11.476;2023-06-22T07:48:56;39.30;51.10
12166;DHT22;6146;48.128;11.476;2023-06-22T07:51:22;39.50;50.50
12166;DHT22;6146;48.128;11.476;2023-06-22T07:53:48;39.00;50.20
12166;DHT22;6146;48.128;11.476;2023-06-22T07:56:14;38.80;51.30
12166;DHT22;6146;48.128;11.476;2023-06-22T07:58:44;38.60;50.80
12166;DHT22;6146;48.128;11.476;2023-06-22T08:01:10;37.90;52.00
12166;DHT22;6146;48.128;11.476;2023-06-22T08:03:36;37.90;52.30
12166;DHT22;6146;48.128;11.476;2023-06-22T08:06:02;38.50;51.30
12166;DHT22;6146;48.128;11.476;2023-06-22T08:08:28;38.80;50.60
12166;DHT22;6146;48.128;11.476;2023-06-22T08:10:53;38.30;50.90
12166;DHT22;6146;48.128;11.476;2023-06-22T08:13:19;36.90;53.60
12166;DHT22;6146;48.128;11.476;2023-06-22T08:15:44;37.10;53.60
12166;DHT22;6146;48.128;11.476;2023-06-22T08:18:10;37.90;52.10
12166;DHT22;6146;48.128;11.476;2023-06-22T08:20:35;38.90;50.00
12166;DHT22;6146;48.128;11.476;2023-06-22T08:23:01;39.50;49.40
12166;DHT22;6146;48.128;11.476;2023-06-22T08:25:32;40.40;48.70
12166;DHT22;6146;48.128;11.476;2023-06-22T08:27:58;40.40;47.40
12166;DHT22;6146;48.128;11.476;2023-06-22T08:30:23;40.50;47.20
12166;DHT22;6146;48.128;11.476;2023-06-22T08:32:49;40.20;47.30
12166;DHT22;6146;48.128;11.476;2023-06-22T08:35:14;40.20;47.00
12166;DHT22;6146;48.128;11.476;2023-06-22T08:37:40;38.70;48.90
12166;DHT22;6146;48.128;11.476;2023-06-22T08:40:07;36.10;53.60
12166;DHT22;6146;48.128;11.476;2023-06-22T08:42:35;34.70;56.60
12166;DHT22;6146;48.128;11.476;2023-06-22T08:45:01;35.00;56.60
12166;DHT22;6146;48.128;11.476;2023-06-22T08:47:29;35.80;55.80
12166;DHT22;6146;48.128;11.476;2023-06-22T08:49:55;36.30;54.50
12166;DHT22;6146;48.128;11.476;2023-06-22T08:52:20;36.10;54.80
12166;DHT22;6146;48.128;11.476;2023-06-22T08:54:47;36.00;54.60
12166;DHT22;6146;48.128;11.476;2023-06-22T08:57:12;36.20;54.30
12166;DHT22;6146;48.128;11.476;2023-06-22T08:59:38;36.90;53.60
12166;DHT22;6146;48.128;11.476;2023-06-22T09:02:03;37.70;52.50
12166;DHT22;6146;48.128;11.476;2023-06-22T09:04:29;38.50;50.20
12166;DHT22;6146;48.128;11.476;2023-06-22T09:06:55;38.90;49.10
12166;DHT22;6146;48.128;11.476;2023-06-22T09:09:21;39.00;49.10
12166;DHT22;6146;48.128;11.476;2023-06-22T09:11:47;38.90;49.40
12166;DHT22;6146;48.128;11.476;2023-06-22T09:14:13;38.90;48.70
12166;DHT22;6146;48.128;11.476;2023-06-22T09:16:38;38.60;49.30
12166;DHT22;6146;48.128;11.476;2023-06-22T09:19:04;39.30;47.90
12166;DHT22;6146;48.128;11.476;2023-06-22T09:21:30;38.70;49.00
12166;DHT22;6146;48.128;11.476;2023-06-22T09:23:56;39.10;48.00
12166;DHT22;6146;48.128;11.476;2023-06-22T09:26:22;39.40;47.20
12166;DHT22;6146;48.128;11.476;2023-06-22T09:28:49;39.60;47.30
12166;DHT22;6146;48.128;11.476;2023-06-22T09:31:15;40.40;45.30
12166;DHT22;6146;48.128;11.476;2023-06-22T09:33:41;40.20;45.70
12166;DHT22;6146;48.128;11.476;2023-06-22T09:36:07;40.30;45.10
12166;DHT22;6146;48.128;11.476;2023-06-22T09:38:39;40.70;44.30
12166;DHT22;6146;48.128;11.476;2023-06-22T09:41:06;40.90;44.00
12166;DHT22;6146;48.128;11.476;2023-06-22T09:43:32;40.50;44.30
12166;DHT22;6146;48.128;11.476;2023-06-22T09:46:00;39.40;45.20
12166;DHT22;6146;48.128;11.476;2023-06-22T09:48:27;39.20;46.20
12166;DHT22;6146;48.128;11.476;2023-06-22T09:50:52;39.70;45.50
12166;DHT22;6146;48.128;11.476;2023-06-22T09:53:18;40.40;43.50
12166;DHT22;6146;48.128;11.476;2023-06-22T09:55:43;40.70;43.50
12166;DHT22;6146;48.128;11.476;2023-06-22T09:58:09;40.10;44.70
12166;DHT22;6146;48.128;11.476;2023-06-22T10:00:35;39.10;45.60
12166;DHT22;6146;48.128;11.476;2023-06-22T10:03:01;39.00;46.50
12166;DHT22;6146;48.128;11.476;2023-06-22T10:05:26;39.90;46.50
12166;DHT22;6146;48.128;11.476;2023-06-22T10:07:52;40.80;44.10
12166;DHT22;6146;48.128;11.476;2023-06-22T10:10:17;40.80;43.90
12166;DHT22;6146;48.128;11.476;2023-06-22T10:12:46;40.70;44.50
12166;DHT22;6146;48.128;11.476;2023-06-22T10:15:12;41.20;42.90
12166;DHT22;6146;48.128;11.476;2023-06-22T10:17:38;41.60;42.80
12166;DHT22;6146;48.128;11.476;2023-06-22T10:20:06;42.50;41.40
12166;DHT22;6146;48.128;11.476;2023-06-22T10:22:46;42.30;41.20
12166;DHT22;6146;48.128;11.476;2023-06-22T10:25:13;42.40;40.90
12166;DHT22;6146;48.128;11.476;2023-06-22T10:27:39;41.70;41.20
12166;DHT22;6146;48.128;11.476;2023-06-22T10:30:11;41.60;41.50
12166;DHT22;6146;48.128;11.476;2023-06-22T10:32:41;41.40;41.80
12166;DHT22;6146;48.128;11.476;2023-06-22T10:35:06;41.60;41.70
12166;DHT22;6146;48.128;11.476;2023-06-22T10:37:32;41.70;41.80
12166;DHT22;6146;48.128;11.476;2023-06-22T10:39:58;42.00;41.80
12166;DHT22;6146;48.128;11.476;2023-06-22T10:42:23;41.60;41.70
12166;DHT22;6146;48.128;11.476;2023-06-22T10:44:49;40.60;43.40
12166;DHT22;6146;48.128;11.476;2023-06-22T10:47:14;40.90;42.30
12166;DHT22;6146;48.128;11.476;2023-06-22T10:49:40;41.10;42.50
12166;DHT22;6146;48.128;11.476;2023-06-22T10:52:07;41.00;42.50
12166;DHT22;6146;48.128;11.476;2023-06-22T10:54:34;40.90;43.00
12166;DHT22;6146;48.128;11.476;2023-06-22T10:57:00;40.70;43.30
12166;DHT22;6146;48.128;11.476;2023-06-22T10:59:26;40.00;44.40
12166;DHT22;6146;48.128;11.476;2023-06-22T11:01:53;39.80;44.70
12166;DHT22;6146;48.128;11.476;2023-06-22T11:04:18;38.50;46.30
12166;DHT22;6146;48.128;11.476;2023-06-22T11:06:44;37.00;48.80
12166;DHT22;6146;48.128;11.476;2023-06-22T11:09:09;36.60;50.20
12166;DHT22;6146;48.128;11.476;2023-06-22T11:11:35;36.60;50.30
12166;DHT22;6146;48.128;11.476;2023-06-22T11:14:00;36.90;50.80
12166;DHT22;6146;48.128;11.476;2023-06-22T11:16:26;37.30;50.30
12166;DHT22;6146;48.128;11.476;2023-06-22T11:18:52;37.70;49.10
12166;DHT22;6146;48.128;11.476;2023-06-22T11:21:17;38.00;48.90
12166;DHT22;6146;48.128;11.476;2023-06-22T11:23:43;37.80;48.90
12166;DHT22;6146;48.128;11.476;2023-06-22T11:26:09;38.10;48.90
12166;DHT22;6146;48.128;11.476;2023-06-22T11:28:34;39.10;47.90
12166;DHT22;6146;48.128;11.476;2023-06-22T11:31:00;39.80;46.70
12166;DHT22;6146;48.128;11.476;2023-06-22T11:33:25;40.00;46.00
12166;DHT22;6146;48.128;11.476;2023-06-22T11:35:51;39.80;45.50
12166;DHT22;6146;48.128;11.476;2023-06-22T11:38:16;39.60;46.50
12166;DHT22;6146;48.128;11.476;2023-06-22T11:40:42;39.80;45.90
12166;DHT22;6146;48.128;11.476;2023-06-22T11:43:08;39.60;47.00
12166;DHT22;6146;48.128;11.476;2023-06-22T11:45:33;39.00;46.70
12166;DHT22;6146;48.128;11.476;2023-06-22T11:47:59;38.70;47.40
12166;DHT22;6146;48.128;11.476;2023-06-22T11:50:24;38.50;47.40
12166;DHT22;6146;48.128;11.476;2023-06-22T11:52:50;38.60;47.70
12166;DHT22;6146;48.128;11.476;2023-06-22T11:55:16;38.80;47.30
12166;DHT22;6146;48.128;11.476;2023-06-22T11:57:54;38.40;48.50
12166;DHT22;6146;48.128;11.476;2023-06-22T12:00:20;37.90;48.60
12166;DHT22;6146;48.128;11.476;2023-06-22T12:02:49;37.80;48.80
12166;DHT22;6146;48.128;11.476;2023-06-22T12:05:14;37.80;48.80
12166;DHT22;6146;48.128;11.476;2023-06-22T12:07:40;37.30;49.60
12166;DHT22;6146;48.128;11.476;2023-06-22T12:10:06;37.10;50.40
12166;DHT22;6146;48.128;11.476;2023-06-22T12:12:32;37.10;49.80
12166;DHT22;6146;48.128;11.476;2023-06-22T12:14:57;36.80;50.70
12166;DHT22;6146;48.128;11.476;2023-06-22T12:17:23;36.80;51.10
12166;DHT22;6146;48.128;11.476;2023-06-22T12:19:48;37.30;50.80
12166;DHT22;6146;48.128;11.476;2023-06-22T12:22:15;37.60;49.50
12166;DHT22;6146;48.128;11.476;2023-06-22T12:24:40;37.80;49.70
12166;DHT22;6146;48.128;11.476;2023-06-22T12:27:06;37.80;49.60
12166;DHT22;6146;48.128;11.476;2023-06-22T12:29:31;37.60;49.60
12166;DHT22;6146;48.128;11.476;2023-06-22T12:31:57;37.10;50.30
12166;DHT22;6146;48.128;11.476;2023-06-22T12:34:22;36.80;51.40
12166;DHT22;6146;48.128;11.476;2023-06-22T12:36:48;36.90;51.10
12166;DHT22;6146;48.128;11.476;2023-06-22T12:39:15;37.00;50.00
12166;DHT22;6146;48.128;11.476;2023-06-22T12:41:40;37.10;49.80
12166;DHT22;6146;48.128;11.476;2023-06-22T12:44:06;37.00;50.80
12166;DHT22;6146;48.128;11.476;2023-06-22T12:46:31;37.20;49.80
12166;DHT22;6146;48.128;11.476;2023-06-22T12:49:03;37.10;50.00
12166;DHT22;6146;48.128;11.476;2023-06-22T12:51:29;37.10;50.20
12166;DHT22;6146;48.128;11.476;2023-06-22T12:53:55;37.20;50.20
12166;DHT22;6146;48.128;11.476;2023-06-22T12:56:21;37.50;49.90
12166;DHT22;6146;48.128;11.476;2023-06-22T12:58:46;37.50;49.80
12166;DHT22;6146;48.128;11.476;2023-06-22T13:01:12;37.60;49.60
12166;DHT22;6146;48.128;11.476;2023-06-22T13:03:37;37.40;49.50
12166;DHT22;6146;48.128;11.476;2023-06-22T13:06:03;37.40;50.00
12166;DHT22;6146;48.128;11.476;2023-06-22T13:08:29;37.50;49.40
12166;DHT22;6146;48.128;11.476;2023-06-22T13:10:55;37.60;50.00
12166;DHT22;6146;48.128;11.476;2023-06-22T13:13:23;37.70;49.60
12166;DHT22;6146;48.128;11.476;2023-06-22T13:15:50;37.80;49.80
12166;DHT22;6146;48.128;11.476;2023-06-22T13:18:15;37.90;49.80
12166;DHT22;6146;48.128;11.476;2023-06-22T13:20:41;38.10;49.20
12166;DHT22;6146;48.128;11.476;2023-06-22T13:23:07;38.10;48.70
12166;DHT22;6146;48.128;11.476;2023-06-22T13:25:32;38.00;48.60
12166;DHT22;6146;48.128;11.476;2023-06-22T13:27:58;37.90;49.60
12166;DHT22;6146;48.128;11.476;2023-06-22T13:30:23;37.60;50.90
12166;DHT22;6146;48.128;11.476;2023-06-22T13:32:49;37.60;50.20
12166;DHT22;6146;48.128;11.476;2023-06-22T13:35:14;37.10;51.20
12166;DHT22;6146;48.128;11.476;2023-06-22T13:37:40;37.10;50.90
12166;DHT22;6146;48.128;11.476;2023-06-22T13:40:07;37.20;50.50
12166;DHT22;6146;48.128;11.476;2023-06-22T13:42:33;37.30;50.50
12166;DHT22;6146;48.128;11.476;2023-06-22T13:44:58;37.30;51.10
12166;DHT22;6146;48.128;11.476;2023-06-22T13:47:24;37.60;50.60
12166;DHT22;6146;48.128;11.476;2023-06-22T13:49:50;37.60;49.80
12166;DHT22;6146;48.128;11.476;2023-06-22T13:52:15;37.50;49.40
12166;DHT22;6146;48.128;11.476;2023-06-22T13:54:41;37.20;50.50
12166;DHT22;6146;48.128;11.476;2023-06-22T13:57:06;37.10;51.10
12166;DHT22;6146;48.128;11.476;2023-06-22T13:59:32;37.10;50.40
12166;DHT22;6146;48.128;11.476;2023-06-22T14:01:57;37.10;51.00
12166;DHT22;6146;48.128;11.476;2023-06-22T14:04:23;37.20;50.80
12166;DHT22;6146;48.128;11.476;2023-06-22T14:06:49;37.10;50.50
12166;DHT22;6146;48.128;11.476;2023-06-22T14:09:14;36.60;51.70
12166;DHT22;6146;48.128;11.476;2023-06-22T14:11:40;36.60;52.10
12166;DHT22;6146;48.128;11.476;2023-06-22T14:14:06;36.60;51.20
12166;DHT22;6146;48.128;11.476;2023-06-22T14:16:31;36.30;51.50
12166;DHT22;6146;48.128;11.476;2023-06-22T14:18:57;36.20;51.40
12166;DHT22;6146;48.128;11.476;2023-06-22T14:21:22;36.10;51.80
12166;DHT22;6146;48.128;11.476;2023-06-22T14:23:48;36.00;52.60
12166;DHT22;6146;48.128;11.476;2023-06-22T14:26:17;35.90;52.90
12166;DHT22;6146;48.128;11.476;2023-06-22T14:28:46;36.10;52.40
12166;DHT22;6146;48.128;11.476;2023-06-22T14:31:17;36.20;51.60
12166;DHT22;6146;48.128;11.476;2023-06-22T14:33:46;36.30;50.60
12166;DHT22;6146;48.128;11.476;2023-06-22T14:36:12;36.30;50.40
12166;DHT22;6146;48.128;11.476;2023-06-22T14:38:38;36.30;50.70
12166;DHT22;6146;48.128;11.476;2023-06-22T14:41:03;36.30;50.30
12166;DHT22;6146;48.128;11.476;2023-06-22T14:43:29;36.30;50.10
12166;DHT22;6146;48.128;11.476;2023-06-22T14:45:54;36.20;50.30
12166;DHT22;6146;48.128;11.476;2023-06-22T14:48:20;36.10;49.90
12166;DHT22;6146;48.128;11.476;2023-06-22T14:50:46;36.20;49.10
12166;DHT22;6146;48.128;11.476;2023-06-22T14:53:11;36.20;47.90
12166;DHT22;6146;48.128;11.476;2023-06-22T14:55:37;36.20;47.90
12166;DHT22;6146;48.128;11.476;2023-06-22T14:58:02;36.10;48.10
12166;DHT22;6146;48.128;11.476;2023-06-22T15:00:28;36.20;47.10
12166;DHT22;6146;48.128;11.476;2023-06-22T15:02:53;36.20;47.80
12166;DHT22;6146;48.128;11.476;2023-06-22T15:05:19;36.20;47.30
12166;DHT22;6146;48.128;11.476;2023-06-22T15:07:44;36.20;47.50
12166;DHT22;6146;48.128;11.476;2023-06-22T15:10:10;36.30;47.20
12166;DHT22;6146;48.128;11.476;2023-06-22T15:12:36;36.30;47.10
12166;DHT22;6146;48.128;11.476;2023-06-22T15:15:01;36.10;46.70
12166;DHT22;6146;48.128;11.476;2023-06-22T15:17:27;36.00;46.40
12166;DHT22;6146;48.128;11.476;2023-06-22T15:19:57;36.00;46.70
12166;DHT22;6146;48.128;11.476;2023-06-22T15:22:23;35.80;47.00
12166;DHT22;6146;48.128;11.476;2023-06-22T15:24:48;35.50;47.50
12166;DHT22;6146;48.128;11.476;2023-06-22T15:27:14;35.30;48.10
12166;DHT22;6146;48.128;11.476;2023-06-22T15:29:40;35.00;48.70
12166;DHT22;6146;48.128;11.476;2023-06-22T15:32:07;34.90;49.10